Time;durP1;ratioP1;P1;durP2;ratioP2;P2;SDS_P1;SDS_P2;PMS_P1;PMS_P2;Temp;Humidity;BMP_temperature;BMP_pressure;BME280_temperature;BME280_humidity;BME280_pressure;Samples;Min_cycle;Max_cycle;Signal;HPM_P1;HPM_P2
2023/10/18 00:01:17;;;;;;;26.20;25.20;;;;;;;-141.02;100.00;37982.47;5135028;27;20192;-67
2023/10/18 00:03:45;;;;;;;27.23;26.13;;;;;;;-141.02;100.00;37992.06;5134939;27;20283;-62
2023/10/18 00:06:15;;;;;;;26.97;25.87;;;;;;;-141.02;100.00;37993.97;5134995;27;20197;-61
2023/10/18 00:08:44;;;;;;;28.27;27.07;;;;;;;-141.02;100.00;38007.41;5134743;27;20612;-65
2023/10/18 00:11:11;;;;;;;27.47;26.37;;;;;;;-141.02;100.00;38005.47;5134807;27;20295;-63
2023/10/18 00:13:39;;;;;;;29.83;28.53;;;;;;;-141.02;100.00;37997.81;5135138;27;20261;-62
2023/10/18 00:16:08;;;;;;;29.93;28.63;;;;;;;-141.02;100.00;38020.81;5135087;27;20192;-65
2023/10/18 00:18:36;;;;;;;30.63;29.33;;;;;;;-141.02;100.00;38009.31;5134734;27;20724;-62
2023/10/18 00:21:06;;;;;;;30.17;28.87;;;;;;;-141.02;100.00;38020.81;5134802;27;20586;-64
2023/10/18 00:23:34;;;;;;;30.10;28.80;;;;;;;-141.02;100.00;38024.66;5134578;27;20200;-63
2023/10/18 00:26:05;;;;;;;29.60;28.33;;;;;;;-141.02;100.00;38015.06;5134472;27;20712;-63
2023/10/18 00:28:34;;;;;;;30.70;29.40;;;;;;;-141.02;100.00;38043.81;5134455;27;20706;-62
2023/10/18 00:31:10;;;;;;;31.03;29.73;;;;;;;-141.02;100.00;38001.66;5134742;27;20257;-64
2023/10/18 00:33:39;;;;;;;31.07;29.73;;;;;;;-141.02;100.00;38030.41;5134480;27;20189;-68
2023/10/18 00:36:10;;;;;;;29.80;28.50;;;;;;;-141.02;100.00;38032.31;5134647;27;20251;-63
2023/10/18 00:38:38;;;;;;;29.40;28.20;;;;;;;-141.02;100.00;38011.22;5134449;27;20191;-68
2023/10/18 00:41:08;;;;;;;30.20;28.90;;;;;;;-141.02;100.00;38024.66;5134164;27;20228;-67
2023/10/18 00:43:36;;;;;;;30.00;28.70;;;;;;;-141.02;100.00;38009.31;5134206;27;20666;-67
2023/10/18 00:46:06;;;;;;;23.70;22.80;;;;;;;-141.02;100.00;38030.41;5134094;27;20192;-64
2023/10/18 00:48:34;;;;;;;30.47;29.17;;;;;;;-141.02;100.00;37993.97;5134447;27;20275;-67
2023/10/18 00:51:02;;;;;;;31.33;30.03;;;;;;;-141.02;100.00;38009.31;5134337;27;20238;-62
2023/10/18 00:53:31;;;;;;;30.05;28.75;;;;;;;-141.02;100.00;37992.06;5133929;27;20231;-60
2023/10/18 00:56:00;;;;;;;28.90;27.70;;;;;;;-141.02;100.00;37976.72;5134262;27;20208;-69
2023/10/18 00:58:29;;;;;;;30.30;29.00;;;;;;;-141.02;100.00;37993.97;5133904;27;20654;-63
2023/10/18 01:00:57;;;;;;;25.13;24.13;;;;;;;-141.02;100.00;37967.16;5133390;27;20232;-64
2023/10/18 01:03:31;;;;;;;29.00;27.80;;;;;;;-141.02;100.00;37990.16;5133699;27;20724;-65
2023/10/18 01:06:04;;;;;;;28.93;27.73;;;;;;;-141.02;100.00;37978.66;5133673;27;20307;-63
2023/10/18 01:08:36;;;;;;;29.70;28.50;;;;;;;-141.02;100.00;37959.47;5133691;27;20564;-68
2023/10/18 01:11:07;;;;;;;27.80;26.70;;;;;;;-141.02;100.00;37944.13;5133746;27;20276;-67
2023/10/18 01:13:39;;;;;;;29.57;28.37;;;;;;;-141.02;100.00;37951.81;5134179;27;20192;-67
2023/10/18 01:16:09;;;;;;;26.83;25.73;;;;;;;-141.02;100.00;37961.38;5133645;27;20189;-66
2023/10/18 01:18:37;;;;;;;26.73;25.63;;;;;;;-141.02;100.00;37992.06;5133535;27;20283;-68
2023/10/18 01:21:18;;;;;;;30.43;29.13;;;;;;;-141.02;100.00;37947.97;5133683;27;20228;-68
2023/10/18 01:23:50;;;;;;;26.97;25.87;;;;;;;-141.02;100.00;38022.72;5134093;27;20184;-69
2023/10/18 01:26:19;;;;;;;29.87;28.67;;;;;;;-141.02;100.00;37959.47;5133568;27;20694;-68
2023/10/18 01:28:46;;;;;;;26.57;25.47;;;;;;;-141.02;100.00;37936.47;5133359;27;20288;-66
2023/10/18 01:31:13;;;;;;;26.80;25.73;;;;;;;-141.02;100.00;37940.31;5133386;27;20203;-66
2023/10/18 01:33:43;;;;;;;29.10;27.90;;;;;;;-141.02;100.00;37965.22;5133289;27;20197;-68
2023/10/18 01:36:14;;;;;;;29.30;28.10;;;;;;;-141.02;100.00;37982.47;5133524;27;20199;-69
2023/10/18 01:38:43;;;;;;;28.23;27.10;;;;;;;-141.02;100.00;37961.38;5134426;27;20581;-68
2023/10/18 01:41:13;;;;;;;30.83;29.53;;;;;;;-141.02;100.00;37961.38;5133447;27;20228;-67
2023/10/18 01:43:43;;;;;;;29.20;28.00;;;;;;;-141.02;100.00;37921.13;5133325;27;20193;-67
2023/10/18 01:46:13;;;;;;;28.47;27.27;;;;;;;-141.02;100.00;37951.81;5133134;27;20191;-67
2023/10/18 01:48:42;;;;;;;29.87;28.67;;;;;;;-141.02;100.00;37949.88;5133277;27;20192;-63
2023/10/18 01:51:12;;;;;;;30.77;29.47;;;;;;;-141.02;100.00;37936.47;5133347;27;20197;-66
2023/10/18 01:53:42;;;;;;;29.67;28.47;;;;;;;-141.02;100.00;37944.13;5133088;27;20653;-67
2023/10/18 01:56:09;;;;;;;30.03;28.77;;;;;;;-141.02;100.00;37894.28;5132985;27;20283;-67
2023/10/18 01:58:36;;;;;;;25.60;24.60;;;;;;;-141.02;100.00;37940.31;5132926;28;20670;-66
2023/10/18 02:01:09;;;;;;;23.60;22.70;;;;;;;-141.02;100.00;37917.31;5132917;27;20231;-67
2023/10/18 02:03:36;;;;;;;26.80;25.70;;;;;;;-141.02;100.00;37936.47;5132887;28;20646;-64
2023/10/18 02:06:06;;;;;;;27.30;26.20;;;;;;;-141.02;100.00;37907.72;5132805;27;20234;-66
2023/10/18 02:08:34;;;;;;;26.47;25.43;;;;;;;-141.02;100.00;37921.13;5133219;28;20245;-67
2023/10/18 02:11:03;;;;;;;31.23;29.93;;;;;;;-141.02;100.00;37926.88;5134018;27;20200;-67
2023/10/18 02:13:30;;;;;;;26.77;25.67;;;;;;;-141.02;100.00;37953.72;5137445;27;20192;-68
2023/10/18 02:15:58;;;;;;;28.97;27.77;;;;;;;-141.02;100.00;37909.63;5137299;27;20191;-67
2023/10/18 02:18:27;;;;;;;29.10;27.90;;;;;;;-141.02;100.00;37944.13;5136800;27;20199;-68
2023/10/18 02:20:53;;;;;;;31.00;29.70;;;;;;;-141.02;100.00;37928.81;5136796;27;20231;-68
2023/10/18 02:23:21;;;;;;;31.47;30.17;;;;;;;-141.02;100.00;37930.72;5137818;27;20196;-65
2023/10/18 02:25:49;;;;;;;28.43;27.23;;;;;;;-141.02;100.00;37923.06;5136922;27;20714;-68
2023/10/18 02:28:24;;;;;;;27.87;26.77;;;;;;;-141.02;100.00;37926.88;5136920;27;20200;-62
2023/10/18 02:31:03;;;;;;;29.67;28.47;;;;;;;-141.02;100.00;37911.56;5136813;27;20745;-65
2023/10/18 02:33:36;;;;;;;26.67;25.57;;;;;;;-141.02;100.00;37913.47;5136873;27;20661;-67
2023/10/18 02:36:07;;;;;;;24.13;23.23;;;;;;;-141.02;100.00;37903.88;5136717;27;20223;-67
2023/10/18 02:38:34;;;;;;;25.67;24.67;;;;;;;-141.02;100.00;37913.47;5136758;27;20188;-67
2023/10/18 02:41:14;;;;;;;25.57;24.57;;;;;;;-141.02;100.00;37875.13;5136538;27;20267;-67
2023/10/18 02:43:45;;;;;;;25.23;24.23;;;;;;;-141.02;100.00;37901.97;5136978;27;20184;-68
2023/10/18 02:46:13;;;;;;;25.03;24.03;;;;;;;-141.02;100.00;37867.47;5136830;27;20188;-67
2023/10/18 02:48:44;;;;;;;22.07;21.27;;;;;;;-141.02;100.00;37886.63;5136440;27;20549;-63
2023/10/18 02:51:12;;;;;;;25.20;24.20;;;;;;;-141.02;100.00;37894.28;5136653;27;20212;-67
2023/10/18 02:53:41;;;;;;;25.43;24.43;;;;;;;-141.02;100.00;37877.03;5136378;27;20662;-68
2023/10/18 02:56:09;;;;;;;25.00;24.00;;;;;;;-141.02;100.00;37913.47;5136403;27;20275;-65
2023/10/18 02:58:38;;;;;;;23.73;22.83;;;;;;;-141.02;100.00;37875.13;5136508;27;20196;-64
2023/10/18 03:01:07;;;;;;;17.88;17.27;;;;;;;-141.02;100.00;37840.63;5136267;27;20649;-64
2023/10/18 03:03:34;;;;;;;29.80;28.60;;;;;;;-141.02;100.00;37878.97;5136127;27;20781;-66
2023/10/18 03:06:06;;;;;;;26.00;25.00;;;;;;;-141.02;100.00;37882.78;5135995;27;20224;-65
2023/10/18 03:08:33;;;;;;;26.23;25.23;;;;;;;-141.02;100.00;37865.53;5136080;27;20283;-65
2023/10/18 03:11:04;;;;;;;24.50;23.60;;;;;;;-141.02;100.00;37829.13;5136372;27;20218;-67
2023/10/18 03:13:31;;;;;;;25.53;24.53;;;;;;;-141.02;100.00;37867.47;5135774;27;20200;-68
2023/10/18 03:16:17;;;;;;;25.57;24.57;;;;;;;-141.02;100.00;37857.88;5136273;27;20192;-67
2023/10/18 03:18:45;;;;;;;26.37;25.33;;;;;;;-141.02;100.00;37905.81;5135895;27;20184;-63
2023/10/18 03:21:21;;;;;;;23.17;22.27;;;;;;;-141.02;100.00;37821.47;5135874;27;20232;-58
2023/10/18 03:23:50;;;;;;;23.93;23.03;;;;;;;-141.02;100.00;37863.63;5135345;27;20267;-59
2023/10/18 03:26:22;;;;;;;25.03;24.03;;;;;;;-141.02;100.00;37871.28;5135749;27;20253;-65
2023/10/18 03:28:50;;;;;;;24.40;23.50;;;;;;;-141.02;100.00;37846.38;5136013;27;20212;-65
2023/10/18 03:31:28;;;;;;;23.15;22.25;;;;;;;-141.02;100.00;37840.63;5135641;27;20577;-67
2023/10/18 03:34:01;;;;;;;24.13;23.23;;;;;;;-141.02;100.00;37817.63;5135617;27;20275;-65
2023/10/18 03:36:32;;;;;;;22.73;21.90;;;;;;;-141.02;100.00;37840.63;5135927;27;20188;-67
2023/10/18 03:39:01;;;;;;;22.88;22.08;;;;;;;-141.02;100.00;37821.47;5135807;27;20637;-67
2023/10/18 03:41:34;;;;;;;21.17;20.47;;;;;;;-141.02;100.00;37785.03;5135549;27;20788;-64
2023/10/18 03:44:06;;;;;;;21.77;20.98;;;;;;;-141.02;100.00;37786.94;5135648;27;20192;-63
2023/10/18 03:46:48;;;;;;;22.07;21.27;;;;;;;-141.02;100.00;37811.88;5135732;27;20267;-63
2023/10/18 03:49:22;;;;;;;17.57;17.03;;;;;;;-141.02;100.00;37790.78;5135617;27;20181;-68
2023/10/18 03:51:54;;;;;;;20.57;19.87;;;;;;;-141.02;100.00;37771.63;5135589;27;20191;-62
2023/10/18 03:54:23;;;;;;;21.27;20.53;;;;;;;-141.02;100.00;37740.94;5135518;27;20263;-65
2023/10/18 03:56:53;;;;;;;21.20;20.47;;;;;;;-141.02;100.00;37740.94;5135520;27;20294;-63
2023/10/18 03:59:21;;;;;;;21.57;20.77;;;;;;;-141.02;100.00;37752.44;5135117;27;20677;-63
2023/10/18 04:02:07;;;;;;;19.67;19.00;;;;;;;-141.02;100.00;37717.94;5134988;27;20269;-65
2023/10/18 04:04:36;;;;;;;21.30;20.50;;;;;;;-141.02;100.00;37706.44;5134743;27;20245;-68
2023/10/18 04:07:19;;;;;;;20.43;19.73;;;;;;;-141.02;100.00;37694.94;5135222;27;20241;-69
2023/10/18 04:09:50;;;;;;;19.93;19.23;;;;;;;-141.02;100.00;37710.28;5135957;27;20210;-67
2023/10/18 04:12:19;;;;;;;19.97;19.27;;;;;;;-141.02;100.00;37725.63;5134916;27;20196;-63
2023/10/18 04:14:52;;;;;;;20.40;19.70;;;;;;;-141.02;100.00;37712.19;5135138;27;20193;-68
2023/10/18 04:17:31;;;;;;;16.93;16.43;;;;;;;-141.02;100.00;37729.44;5135106;27;20567;-67
2023/10/18 04:20:00;;;;;;;19.07;18.47;;;;;;;-141.02;100.00;37721.78;5134699;27;20180;-66
2023/10/18 04:22:29;;;;;;;18.67;18.07;;;;;;;-141.02;100.00;37740.94;5134579;27;20228;-67
2023/10/18 04:24:56;;;;;;;20.00;19.30;;;;;;;-141.02;100.00;37760.13;5134825;27;20193;-66
2023/10/18 04:27:23;;;;;;;20.07;19.37;;;;;;;-141.02;100.00;37773.53;5134899;27;20188;-68
2023/10/18 04:29:55;;;;;;;21.43;20.63;;;;;;;-141.02;100.00;37790.78;5134579;27;20279;-69
2023/10/18 04:32:23;;;;;;;21.90;21.10;;;;;;;-141.02;100.00;37806.13;5134560;27;20185;-69
2023/10/18 04:34:50;;;;;;;17.73;17.17;;;;;;;-141.02;100.00;37834.88;5133655;27;20655;-59
2023/10/18 04:37:22;;;;;;;19.83;19.13;;;;;;;-141.02;100.00;37917.31;5134356;27;20195;-68
2023/10/18 04:39:52;;;;;;;20.03;19.33;;;;;;;-141.02;100.00;37932.63;5134643;27;20184;-67
2023/10/18 04:42:19;;;;;;;19.30;18.70;;;;;;;-141.02;100.00;38009.31;5134737;27;20593;-68
2023/10/18 04:44:49;;;;;;;19.33;18.73;;;;;;;-141.02;100.00;38074.50;5133970;27;20192;-67
2023/10/18 04:47:17;;;;;;;21.13;20.43;;;;;;;-141.02;100.00;38118.59;5134423;27;20192;-67
2023/10/18 04:50:00;;;;;;;21.90;21.10;;;;;;;-141.02;100.00;38153.09;5134073;27;20192;-68
2023/10/18 04:52:28;;;;;;;23.30;22.40;;;;;;;-141.02;100.00;38222.09;5134396;27;20188;-66
2023/10/18 04:55:05;;;;;;;23.30;22.40;;;;;;;-141.02;100.00;38296.88;5133952;27;20586;-66
2023/10/18 04:57:38;;;;;;;23.97;23.07;;;;;;;-141.02;100.00;38381.22;5133962;27;20184;-69
2023/10/18 05:00:24;;;;;;;21.50;20.70;;;;;;;-141.02;100.00;38404.25;5133992;27;20185;-66
2023/10/18 05:02:58;;;;;;;23.13;22.30;;;;;;;-141.02;100.00;38465.59;5134285;27;20245;-67
2023/10/18 05:05:26;;;;;;;23.92;23.02;;;;;;;-141.02;100.00;38448.34;5133657;27;20228;-67
2023/10/18 05:07:54;;;;;;;20.30;19.60;;;;;;;-141.02;100.00;38488.59;5133798;27;20200;-67
2023/10/18 05:10:23;;;;;;;19.17;18.58;;;;;;;-141.02;100.00;38718.69;5133743;27;20193;-65
2023/10/18 05:13:01;;;;;;;18.67;18.08;;;;;;;-141.02;100.00;38739.78;5133955;27;20196;-63
2023/10/18 05:15:31;;;;;;;18.90;18.30;;;;;;;-141.02;100.00;38812.63;5133700;27;20195;-67
2023/10/18 05:18:15;;;;;;;19.98;19.27;;;;;;;-141.02;100.00;38944.94;5133336;27;20197;-64
2023/10/18 05:20:55;;;;;;;20.27;19.57;;;;;;;-141.02;100.00;38967.94;5133778;27;20216;-68
2023/10/18 05:23:24;;;;;;;20.33;19.63;;;;;;;-141.02;100.00;39002.47;5133575;27;20276;-68
2023/10/18 05:25:58;;;;;;;20.13;19.42;;;;;;;-141.02;100.00;39075.34;5133689;27;20200;-67
2023/10/18 05:28:28;;;;;;;19.50;18.80;;;;;;;-141.02;100.00;39115.59;5133805;27;20206;-65
2023/10/18 05:33:48;;;;;;;20.93;20.23;;;;;;;-141.02;100.00;39196.16;5133246;27;20701;-68
2023/10/18 05:36:34;;;;;;;22.10;21.30;;;;;;;-141.02;100.00;39278.59;5133301;27;20195;-67
2023/10/18 05:39:27;;;;;;;20.13;19.42;;;;;;;-141.02;100.00;39328.47;5133197;27;20195;-69
2023/10/18 05:44:36;;;;;;;23.30;22.40;;;;;;;-141.02;100.00;39328.47;5130566;27;20202;-67
2023/10/18 05:47:06;;;;;;;20.73;20.00;;;;;;;-141.02;100.00;39282.44;5133101;27;20200;-65
2023/10/18 05:49:40;;;;;;;25.65;24.65;;;;;;;-141.02;100.00;39292.03;5133111;27;20562;-68
2023/10/18 05:52:19;;;;;;;23.65;22.75;;;;;;;-141.02;100.00;39320.78;5133312;27;20206;-64
2023/10/18 05:54:46;;;;;;;29.83;28.52;;;;;;;-141.02;100.00;39347.66;5133376;27;20223;-66
2023/10/18 05:57:19;;;;;;;31.40;30.00;;;;;;;-141.02;100.00;39351.47;5132966;28;20650;-68
2023/10/18 05:59:48;;;;;;;28.80;27.60;;;;;;;-141.02;100.00;39393.66;5133029;27;20193;-67
2023/10/18 06:02:22;;;;;;;29.60;28.30;;;;;;;-141.02;100.00;39462.72;5133178;27;20228;-66
2023/10/18 06:04:51;;;;;;;31.38;29.98;;;;;;;-141.02;100.00;39468.47;5132942;27;20622;-67
2023/10/18 06:07:22;;;;;;;33.00;31.50;;;;;;;-141.02;100.00;39501.06;5133264;27;20189;-63
2023/10/18 06:09:54;;;;;;;26.40;25.30;;;;;;;-141.02;100.00;39501.06;5133436;28;20188;-66
2023/10/18 06:12:24;;;;;;;26.08;24.98;;;;;;;-141.02;100.00;39524.09;5132983;28;20656;-67
2023/10/18 06:14:53;;;;;;;35.08;33.47;;;;;;;-141.02;100.00;39585.44;5132805;28;20196;-68
2023/10/18 06:17:22;;;;;;;33.65;32.15;;;;;;;-141.02;100.00;39585.44;5133153;28;20203;-62
2023/10/18 06:19:51;;;;;;;29.08;27.83;;;;;;;-141.02;100.00;39704.38;5133059;27;20281;-65
2023/10/18 06:25:03;;;;;;;36.88;35.08;;;;;;;-141.02;100.00;39614.22;5130008;28;20229;-69
2023/10/18 06:27:38;;;;;;;39.92;38.00;;;;;;;-141.02;100.00;39662.16;5132768;28;20536;-68
2023/10/18 06:30:14;;;;;;;37.08;35.28;;;;;;;-141.02;100.00;39654.50;5132656;28;20188;-68
2023/10/18 06:32:41;;;;;;;38.33;36.42;;;;;;;-141.02;100.00;39685.19;5132745;27;20186;-66
2023/10/18 06:35:15;;;;;;;41.38;39.28;;;;;;;-141.02;100.00;39700.53;5132917;28;20643;-69
2023/10/18 06:37:42;;;;;;;40.10;38.03;;;;;;;-141.02;100.00;39727.38;5132481;27;20196;-66
2023/10/18 06:40:21;;;;;;;40.30;38.30;;;;;;;-141.02;100.00;39758.06;5132603;28;20193;-68
2023/10/18 06:42:49;;;;;;;40.55;38.45;;;;;;;-141.02;100.00;39761.91;5132902;28;20653;-67
2023/10/18 06:45:17;;;;;;;41.15;39.03;;;;;;;-141.02;100.00;39763.81;5132777;28;20247;-68
2023/10/18 06:47:45;;;;;;;37.67;35.83;;;;;;;-141.02;100.00;39804.09;5132916;28;20669;-62
2023/10/18 06:50:13;;;;;;;42.30;40.10;;;;;;;-141.02;100.00;39819.44;5132738;28;20279;-66
2023/10/18 06:52:44;;;;;;;41.75;39.55;;;;;;;-141.02;100.00;39830.94;5132823;27;20192;-67
2023/10/18 06:55:16;;;;;;;43.28;40.88;;;;;;;-141.02;100.00;39829.03;5132495;28;20612;-63
2023/10/18 06:57:45;;;;;;;41.80;39.60;;;;;;;-141.02;100.00;39855.88;5133691;27;20189;-68
2023/10/18 07:00:16;;;;;;;40.95;38.85;;;;;;;-141.02;100.00;39877.00;5136371;27;20283;-65
2023/10/18 07:02:44;;;;;;;43.67;41.28;;;;;;;-141.02;100.00;39909.59;5136569;27;20324;-59
2023/10/18 07:05:11;;;;;;;42.53;40.28;;;;;;;-141.02;100.00;39917.25;5135962;27;20713;-66
2023/10/18 07:07:38;;;;;;;43.60;41.30;;;;;;;-141.02;100.00;39940.28;5136055;27;20206;-68
2023/10/18 07:10:19;;;;;;;43.80;41.50;;;;;;;-141.02;100.00;39949.88;5136142;27;20192;-68
2023/10/18 07:12:52;;;;;;;41.47;39.28;;;;;;;-141.02;100.00;39944.13;5136442;27;20619;-69
2023/10/18 07:15:22;;;;;;;46.00;43.50;;;;;;;-141.02;100.00;39949.88;5136381;27;20185;-67
2023/10/18 07:17:51;;;;;;;44.20;41.80;;;;;;;-141.02;100.00;39955.63;5135934;27;20275;-69
2023/10/18 07:20:19;;;;;;;45.13;42.67;;;;;;;-141.02;100.00;40011.25;5136323;27;20196;-69
2023/10/18 07:22:49;;;;;;;44.08;41.67;;;;;;;-141.02;100.00;40003.59;5135629;27;20273;-67
2023/10/18 07:25:21;;;;;;;43.72;41.42;;;;;;;-141.02;100.00;40030.44;5135694;27;20560;-67
2023/10/18 07:27:49;;;;;;;45.72;43.22;;;;;;;-141.02;100.00;40082.22;5135731;27;20220;-67
2023/10/18 07:30:16;;;;;;;46.65;44.15;;;;;;;-141.02;100.00;40087.97;5135732;27;20192;-69
2023/10/18 07:32:47;;;;;;;43.28;40.97;;;;;;;-141.02;100.00;40086.06;5135940;27;20228;-66
2023/10/18 07:35:26;;;;;;;42.70;40.45;;;;;;;-141.02;100.00;40084.16;5135607;27;20593;-65
2023/10/18 07:37:55;;;;;;;45.05;42.55;;;;;;;-141.02;100.00;40114.84;5135655;27;20185;-67
2023/10/18 07:40:23;;;;;;;34.80;33.10;;;;;;;-141.02;100.00;40145.53;5135834;27;20292;-65
2023/10/18 07:42:51;;;;;;;41.95;39.65;;;;;;;-141.02;100.00;40111.00;5135696;27;20614;-69
2023/10/18 07:45:20;;;;;;;55.40;52.38;;;;;;;-141.02;100.00;40155.13;5135354;27;20288;-70
2023/10/18 07:47:53;;;;;;;41.50;39.20;;;;;;;-141.02;100.00;40153.19;5135303;27;20192;-69
2023/10/18 07:50:34;;;;;;;41.17;38.97;;;;;;;-141.02;100.00;40185.81;5135295;27;20668;-69
2023/10/18 07:53:01;;;;;;;40.08;37.92;;;;;;;-141.02;100.00;40178.13;5135354;27;20188;-69
2023/10/18 07:55:36;;;;;;;38.63;36.63;;;;;;;-141.02;100.00;40195.41;5135163;27;20192;-68
2023/10/18 07:58:17;;;;;;;39.40;37.30;;;;;;;-141.02;100.00;40199.22;5135211;27;20185;-69
2023/10/18 08:01:06;;;;;;;38.55;36.45;;;;;;;-141.02;100.00;40212.66;5135516;27;20560;-67
2023/10/18 08:03:35;;;;;;;41.35;39.08;;;;;;;-141.02;100.00;40252.94;5135081;27;20219;-69
2023/10/18 08:06:06;;;;;;;41.65;39.28;;;;;;;-141.02;100.00;40247.19;5134935;27;20235;-67
2023/10/18 08:08:36;;;;;;;37.10;35.10;;;;;;;-141.02;100.00;40275.97;5134684;27;20637;-70
2023/10/18 08:11:06;;;;;;;38.05;35.90;;;;;;;-141.02;100.00;40306.66;5135254;27;20192;-70
2023/10/18 08:13:43;;;;;;;40.53;38.22;;;;;;;-141.02;100.00;40327.75;5134868;27;20551;-69
2023/10/18 08:16:11;;;;;;;44.10;41.50;;;;;;;-141.02;100.00;40375.72;5135146;27;20201;-66
2023/10/18 08:18:43;;;;;;;39.45;37.25;;;;;;;-141.02;100.00;40371.88;5133454;27;20196;-66
2023/10/18 08:21:25;;;;;;;39.30;37.10;;;;;;;-141.02;100.00;40153.19;5134724;27;20185;-67
2023/10/18 08:23:55;;;;;;;39.70;37.40;;;;;;;-141.02;100.00;40400.66;5134635;27;20726;-66
2023/10/18 08:26:22;;;;;;;42.40;39.90;;;;;;;-141.02;100.00;40414.09;5134384;27;20193;-71
2023/10/18 08:28:49;;;;;;;41.15;38.75;;;;;;;-141.02;100.00;40406.41;5134826;27;20710;-66
2023/10/18 08:31:26;;;;;;;42.15;39.65;;;;;;;-141.02;100.00;40458.22;5134488;27;20688;-59
2023/10/18 08:33:56;;;;;;;43.42;40.88;;;;;;;-141.02;100.00;40442.88;5134337;27;20596;-63
2023/10/18 08:36:29;;;;;;;40.17;37.88;;;;;;;-141.02;100.00;40490.81;5134335;27;20193;-63
2023/10/18 08:38:56;;;;;;;44.38;41.88;;;;;;;-141.02;100.00;40467.81;5134345;27;20196;-60
2023/10/18 08:41:26;;;;;;;39.90;37.72;;;;;;;-141.02;100.00;40486.97;5134634;27;20245;-58
2023/10/18 08:44:05;;;;;;;44.25;41.65;;;;;;;-141.02;100.00;40559.88;5134832;27;20196;-64
2023/10/18 08:46:36;;;;;;;46.03;43.33;;;;;;;-141.02;99.38;40619.34;5134217;27;20229;-65
2023/10/18 08:49:07;;;;;;;44.03;41.33;;;;;;;-141.02;100.00;40605.94;5133940;27;20650;-65
2023/10/18 08:51:36;;;;;;;43.75;41.15;;;;;;;-141.02;100.00;40613.59;5134008;27;20195;-64
2023/10/18 08:54:15;;;;;;;45.45;42.65;;;;;;;-141.02;100.00;40613.59;5133660;27;20574;-62
2023/10/18 08:56:44;;;;;;;45.10;42.35;;;;;;;-141.02;100.00;40646.22;5133701;27;20216;-65
2023/10/18 08:59:11;;;;;;;44.35;41.65;;;;;;;-141.02;100.00;40657.72;5133716;27;20611;-63
2023/10/18 09:01:38;;;;;;;40.88;38.45;;;;;;;-141.02;99.18;40682.66;5133678;27;20286;-69
2023/10/18 09:04:07;;;;;;;38.03;35.83;;;;;;;-141.02;98.44;40678.84;5133614;27;20671;-70
2023/10/18 09:06:34;;;;;;;46.50;43.50;;;;;;;-141.02;99.97;40690.34;5133677;27;20184;-62
2023/10/18 09:09:05;;;;;;;45.00;42.10;;;;;;;-141.02;97.85;40736.38;5133661;27;20230;-63
2023/10/18 09:11:31;;;;;;;44.15;41.35;;;;;;;-141.02;97.45;40713.38;5133562;27;20180;-64
2023/10/18 09:14:11;;;;;;;38.63;36.33;;;;;;;-141.02;95.35;40765.16;5133291;27;20681;-64
2023/10/18 09:16:38;;;;;;;45.53;42.60;;;;;;;-141.02;93.33;40776.69;5133503;27;20200;-67
2023/10/18 09:19:08;;;;;;;44.95;42.05;;;;;;;-141.02;92.97;40801.63;5133378;27;20203;-68
2023/10/18 09:21:44;;;;;;;44.90;42.00;;;;;;;-141.02;93.56;40824.63;5133077;27;20681;-67
2023/10/18 09:24:11;;;;;;;44.40;41.60;;;;;;;-141.02;93.35;40832.31;5133434;27;20217;-67
2023/10/18 09:26:41;;;;;;;18.67;17.45;;;;;;;-141.02;95.84;40840.00;5133621;27;20199;-67
2023/10/18 09:29:09;;;;;;;17.58;16.48;;;;;;;-141.02;93.01;40861.09;5133235;27;20205;-62
2023/10/18 09:31:38;;;;;;;18.20;17.00;;;;;;;-141.02;93.04;40859.19;5134417;27;20219;-66
2023/10/18 09:34:09;;;;;;;46.92;43.95;;;;;;;-141.02;89.34;40916.75;5133502;27;20204;-66
2023/10/18 09:36:39;;;;;;;46.60;43.70;;;;;;;-141.02;87.98;40926.31;5133602;27;20263;-66
2023/10/18 09:39:09;;;;;;;46.20;43.30;;;;;;;-141.02;90.85;40941.69;5133162;27;20192;-69
2023/10/18 09:41:37;;;;;;;47.33;44.33;;;;;;;-141.02;85.71;40966.63;5133272;27;20200;-66
2023/10/18 09:44:06;;;;;;;48.20;45.15;;;;;;;-141.02;82.80;41012.66;5133020;27;20224;-63
2023/10/18 09:46:34;;;;;;;33.13;31.23;;;;;;;-141.02;83.16;41066.41;5133101;27;20196;-62
2023/10/18 09:49:05;;;;;;;18.77;17.58;;;;;;;-141.02;83.90;41029.94;5133032;27;20228;-72
2023/10/18 09:51:36;;;;;;;18.10;17.00;;;;;;;-141.02;86.37;40985.81;5133090;27;20626;-70
2023/10/18 09:54:07;;;;;;;45.00;42.10;;;;;;;-141.02;85.84;41016.50;5132862;27;20653;-74
2023/10/18 09:56:37;;;;;;;44.13;41.33;;;;;;;-141.02;83.62;41054.88;5133954;27;20271;-66
2023/10/18 09:59:08;;;;;;;48.67;45.78;;;;;;;-141.02;84.37;41074.06;5132781;27;20177;-67
2023/10/18 10:04:18;;;;;;;38.60;36.40;;;;;;;-141.02;80.99;41091.34;5129743;28;20773;-70
2023/10/18 10:06:47;;;;;;;18.13;17.05;;;;;;;-141.02;83.64;41120.13;5133288;27;20188;-64
2023/10/18 10:09:15;;;;;;;22.42;21.15;;;;;;;-141.02;83.21;41120.13;5133192;28;20227;-64
2023/10/18 10:11:44;;;;;;;17.70;16.70;;;;;;;-141.02;84.82;41135.47;5132842;28;20199;-65
2023/10/18 10:14:12;;;;;;;17.83;16.83;;;;;;;-141.02;85.96;41108.59;5133177;27;20560;-63
2023/10/18 10:16:45;;;;;;;39.10;36.90;;;;;;;-141.02;84.11;41143.16;5133095;28;20214;-63
2023/10/18 10:19:15;;;;;;;47.88;45.03;;;;;;;-141.02;82.60;41135.47;5133142;28;20287;-65
2023/10/18 10:21:44;;;;;;;50.17;47.38;;;;;;;-141.02;83.92;41204.53;5132707;27;20196;-64
2023/10/18 10:26:54;;;;;;;18.35;17.35;;;;;;;-141.02;83.24;41177.69;5132670;27;20203;-70
2023/10/18 10:32:15;;;;;;;19.15;18.10;;;;;;;-141.02;83.73;41166.16;5130665;27;20189;-66
2023/10/18 10:34:42;;;;;;;18.90;17.90;;;;;;;-141.02;85.10;41135.47;5135796;27;20460;-62
2023/10/18 10:37:11;;;;;;;17.83;16.92;;;;;;;-141.02;84.02;41145.06;5136960;27;20192;-65
2023/10/18 10:39:45;;;;;;;18.20;17.20;;;;;;;-141.02;83.21;41164.25;5136923;27;20445;-69
2023/10/18 10:56:20;;;;;;;17.77;16.77;;;;;;;-141.02;87.93;41120.13;5130286;27;20356;-69
2023/10/18 10:59:03;;;;;;;17.40;16.50;;;;;;;-141.02;86.31;41143.16;5130360;28;20184;-69
2023/10/18 11:02:06;;;;;;;18.40;17.40;;;;;;;-141.02;84.22;41177.69;5130472;27;20234;-69
2023/10/18 11:04:58;;;;;;;17.45;16.55;;;;;;;-141.02;82.84;41181.53;5130353;28;20188;-70
2023/10/18 11:07:27;;;;;;;18.20;17.20;;;;;;;-141.02;83.21;41148.91;5130330;27;20190;-67
2023/10/18 11:10:06;;;;;;;18.10;17.10;;;;;;;-141.02;83.23;41150.81;5130468;28;20202;-68
2023/10/18 11:12:35;;;;;;;18.00;17.10;;;;;;;-141.02;85.56;41166.16;5130568;27;20185;-71
2023/10/18 11:15:04;;;;;;;17.85;16.95;;;;;;;-141.02;86.15;41148.91;5129978;28;20228;-71
2023/10/18 11:17:34;;;;;;;40.70;38.50;;;;;;;-141.02;83.93;41139.31;5130397;27;20188;-72
2023/10/18 11:20:09;;;;;;;73.07;69.40;;;;;;;-141.02;84.75;41143.16;5130018;28;20222;-72
2023/10/18 11:22:41;;;;;;;40.22;38.03;;;;;;;-141.02;86.23;41135.47;5130047;28;20191;-71
2023/10/18 11:25:12;;;;;;;40.75;38.55;;;;;;;-141.02;87.11;41154.66;5130272;28;20562;-71
2023/10/18 11:27:41;;;;;;;40.08;37.97;;;;;;;-141.02;86.09;41118.19;5130079;27;20271;-72
2023/10/18 11:30:15;;;;;;;40.15;38.05;;;;;;;-141.02;85.53;41143.16;5129905;28;20702;-71
2023/10/18 11:32:44;;;;;;;39.67;37.58;;;;;;;-141.02;87.23;41200.72;5130185;27;20192;-71
2023/10/18 11:35:12;;;;;;;42.85;40.55;;;;;;;-141.02;88.60;41145.06;5129623;28;20234;-71
2023/10/18 11:37:44;;;;;;;36.83;34.83;;;;;;;-141.02;87.42;41150.81;5129600;28;20281;-72
2023/10/18 11:40:14;;;;;;;38.00;35.90;;;;;;;-141.02;85.99;41152.75;5129928;28;20180;-72
2023/10/18 11:43:04;;;;;;;34.30;32.42;;;;;;;-141.02;86.00;41146.97;5129456;27;20192;-72